Time;durP1;ratioP1;P1;durP2;ratioP2;P2;SDS_P1;SDS_P2;PMS_P1;PMS_P2;Temp;Humidity;BMP_temperature;BMP_pressure;BME280_temperature;BME280_humidity;BME280_pressure;Samples;Min_cycle;Max_cycle;Signal;HPM_P1;HPM_P2
2022/11/01 00:00:16;;;;;;;10.18;3.88;;;;;;;;;;5040842;28;20028;-82
2022/11/01 00:02:41;;;;;;;8.40;3.30;;;;;;;;;;5073233;28;20459;-82
2022/11/01 00:05:07;;;;;;;6.97;3.80;;;;;;;;;;5057146;28;20035;-82
2022/11/01 00:07:33;;;;;;;10.00;3.75;;;;;;;;;;5073853;28;20111;-83
2022/11/01 00:09:58;;;;;;;5.28;3.50;;;;;;;;;;5073909;28;20415;-82
2022/11/01 00:12:23;;;;;;;6.35;3.50;;;;;;;;;;5075376;28;20033;-82
2022/11/01 00:14:49;;;;;;;5.85;3.35;;;;;;;;;;5073868;28;20024;-82
2022/11/01 00:17:14;;;;;;;7.07;3.40;;;;;;;;;;5075312;28;20468;-83
2022/11/01 00:19:39;;;;;;;6.60;3.47;;;;;;;;;;5073718;28;20032;-83
2022/11/01 00:22:05;;;;;;;6.75;3.40;;;;;;;;;;5073763;28;20028;-82
2022/11/01 00:24:30;;;;;;;7.88;3.47;;;;;;;;;;5075026;28;20032;-82
2022/11/01 00:26:56;;;;;;;10.68;4.15;;;;;;;;;;5073892;28;20033;-83
2022/11/01 00:29:22;;;;;;;6.43;3.45;;;;;;;;;;5073616;28;20320;-84
2022/11/01 00:31:47;;;;;;;9.63;3.50;;;;;;;;;;5074959;28;20032;-83
2022/11/01 00:34:12;;;;;;;11.02;3.45;;;;;;;;;;5074688;28;20047;-83
2022/11/01 00:36:38;;;;;;;6.22;3.45;;;;;;;;;;5074902;28;20024;-83
2022/11/01 00:39:04;;;;;;;8.48;3.67;;;;;;;;;;5074810;28;20025;-83
2022/11/01 00:41:29;;;;;;;7.03;3.35;;;;;;;;;;5056520;28;20064;-82
2022/11/01 00:43:55;;;;;;;8.43;3.60;;;;;;;;;;5075064;28;20102;-82
2022/11/01 00:46:20;;;;;;;5.90;3.30;;;;;;;;;;5056415;28;20024;-82
2022/11/01 00:48:45;;;;;;;6.05;3.22;;;;;;;;;;5090378;28;20060;-82
2022/11/01 00:51:11;;;;;;;5.90;3.33;;;;;;;;;;5076614;28;20039;-83
2022/11/01 00:53:36;;;;;;;7.70;3.45;;;;;;;;;;5094501;28;20028;-82
2022/11/01 00:56:03;;;;;;;5.20;2.97;;;;;;;;;;5076218;28;20028;-82
2022/11/01 00:58:29;;;;;;;7.47;3.25;;;;;;;;;;5076246;28;20023;-82
2022/11/01 01:00:54;;;;;;;6.32;3.60;;;;;;;;;;5076238;28;20135;-82
2022/11/01 01:03:20;;;;;;;5.28;3.70;;;;;;;;;;5075989;28;20039;-83
2022/11/01 01:05:47;;;;;;;7.22;3.50;;;;;;;;;;5076284;28;20029;-82
2022/11/01 01:08:13;;;;;;;7.38;3.83;;;;;;;;;;5076366;28;20115;-82
2022/11/01 01:10:38;;;;;;;10.60;3.92;;;;;;;;;;5094499;28;20107;-83
2022/11/01 01:13:03;;;;;;;9.35;3.50;;;;;;;;;;5076008;28;20475;-82
2022/11/01 01:15:29;;;;;;;6.97;3.30;;;;;;;;;;5076494;28;20421;-83
2022/11/01 01:17:54;;;;;;;5.57;3.38;;;;;;;;;;5076199;28;20036;-83
2022/11/01 01:20:20;;;;;;;10.57;3.65;;;;;;;;;;5076422;28;20411;-82
2022/11/01 01:22:45;;;;;;;8.45;3.63;;;;;;;;;;5075793;28;20055;-83
2022/11/01 01:25:11;;;;;;;6.20;3.35;;;;;;;;;;5076023;28;20028;-82
2022/11/01 01:27:37;;;;;;;6.35;3.50;;;;;;;;;;5093808;28;20032;-82
2022/11/01 01:30:04;;;;;;;6.13;3.25;;;;;;;;;;5094088;28;20493;-84
2022/11/01 01:32:30;;;;;;;6.30;3.17;;;;;;;;;;5075565;28;20107;-84
2022/11/01 01:34:55;;;;;;;5.80;3.15;;;;;;;;;;5093785;28;20149;-84
2022/11/01 01:37:20;;;;;;;6.65;3.38;;;;;;;;;;5075492;28;20055;-84
2022/11/01 01:39:46;;;;;;;8.43;3.50;;;;;;;;;;5075514;28;20162;-83
2022/11/01 01:42:17;;;;;;;5.88;3.28;;;;;;;;;;5092412;28;20497;-83
2022/11/01 01:44:45;;;;;;;8.88;3.05;;;;;;;;;;5075344;28;20032;-83
2022/11/01 01:47:16;;;;;;;5.88;3.05;;;;;;;;;;5093455;28;20052;-82
2022/11/01 01:49:41;;;;;;;5.38;3.08;;;;;;;;;;5093573;28;20049;-82
2022/11/01 01:52:07;;;;;;;4.45;3.13;;;;;;;;;;5075261;28;20032;-82
2022/11/01 01:54:33;;;;;;;6.10;3.20;;;;;;;;;;5092109;28;20421;-83
2022/11/01 01:56:58;;;;;;;5.82;3.35;;;;;;;;;;5058569;28;20032;-83
2022/11/01 01:59:24;;;;;;;5.28;3.22;;;;;;;;;;5093369;28;20372;-83
2022/11/01 02:01:50;;;;;;;7.22;3.33;;;;;;;;;;5093305;28;20124;-82
2022/11/01 02:04:28;;;;;;;4.57;3.10;;;;;;;;;;5093588;28;20467;-83
2022/11/01 02:06:54;;;;;;;7.85;2.80;;;;;;;;;;5093556;28;20028;-83
2022/11/01 02:09:20;;;;;;;4.78;3.13;;;;;;;;;;5075289;28;20043;-83
2022/11/01 02:11:45;;;;;;;7.00;3.55;;;;;;;;;;5058816;28;20040;-83
2022/11/01 02:14:11;;;;;;;11.27;3.65;;;;;;;;;;5075131;28;20031;-82
2022/11/01 02:16:51;;;;;;;5.78;3.47;;;;;;;;;;5075132;28;20443;-82
2022/11/01 02:19:25;;;;;;;7.95;3.33;;;;;;;;;;5075361;28;20073;-81
2022/11/01 02:22:35;;;;;;;6.10;3.13;;;;;;;;;;5074913;28;20030;-82
2022/11/01 02:25:31;;;;;;;6.10;3.05;;;;;;;;;;5028049;28;20072;-82
2022/11/01 02:28:24;;;;;;;5.13;3.17;;;;;;;;;;5035300;28;20029;-81
2022/11/01 02:31:02;;;;;;;4.43;2.80;;;;;;;;;;5035147;28;20183;-82
2022/11/01 02:33:41;;;;;;;4.95;3.17;;;;;;;;;;5018335;28;20492;-82
2022/11/01 02:36:14;;;;;;;6.07;3.10;;;;;;;;;;5018440;28;20038;-81
2022/11/01 02:38:47;;;;;;;5.32;3.03;;;;;;;;;;5034905;28;20040;-82
2022/11/01 02:41:31;;;;;;;6.45;3.20;;;;;;;;;;5018612;28;20147;-82
2022/11/01 02:44:03;;;;;;;;;;;;;;;;;;5018914;28;20033;-82
2022/11/01 02:49:20;;;;;;;5.88;3.40;;;;;;;;;;5020566;28;20128;-83
2022/11/01 02:51:46;;;;;;;9.00;3.60;;;;;;;;;;5034696;28;20041;-82
2022/11/01 02:54:30;;;;;;;6.55;3.30;;;;;;;;;;5018377;28;20034;-81
2022/11/01 02:57:01;;;;;;;8.10;2.97;;;;;;;;;;5068042;28;20478;-82
2022/11/01 02:59:27;;;;;;;6.40;2.97;;;;;;;;;;5079161;28;20039;-82
2022/11/01 03:01:59;;;;;;;7.35;3.20;;;;;;;;;;5062161;28;20028;-82
2022/11/01 03:04:25;;;;;;;6.93;2.95;;;;;;;;;;5096676;28;20386;-83
2022/11/01 03:06:54;;;;;;;4.90;2.88;;;;;;;;;;5096657;28;20043;-83
2022/11/01 03:09:20;;;;;;;5.47;3.00;;;;;;;;;;5096698;28;20027;-82
2022/11/01 03:11:54;;;;;;;7.25;3.08;;;;;;;;;;5096992;28;20530;-83
2022/11/01 03:14:31;;;;;;;7.22;3.15;;;;;;;;;;5096389;28;20028;-82
2022/11/01 03:17:07;;;;;;;4.45;2.92;;;;;;;;;;5078557;28;20107;-82
2022/11/01 03:20:00;;;;;;;6.35;3.22;;;;;;;;;;5061515;28;20020;-82
2022/11/01 03:22:28;;;;;;;6.80;3.10;;;;;;;;;;5096389;28;20099;-83
2022/11/01 03:28:03;;;;;;;6.03;2.85;;;;;;;;;;5080933;28;20070;-84
2022/11/01 03:30:30;;;;;;;10.75;3.40;;;;;;;;;;5077902;28;20035;-82
2022/11/01 03:32:57;;;;;;;6.78;2.63;;;;;;;;;;5096315;28;20028;-85
2022/11/01 03:35:25;;;;;;;4.85;3.10;;;;;;;;;;5077873;28;20016;-84
2022/11/01 03:37:54;;;;;;;7.55;3.20;;;;;;;;;;5060935;28;20035;-84
2022/11/01 03:40:22;;;;;;;5.22;2.85;;;;;;;;;;5078012;28;20089;-83
2022/11/01 03:42:50;;;;;;;6.07;3.00;;;;;;;;;;5077644;28;20497;-83
2022/11/01 03:45:19;;;;;;;4.78;2.83;;;;;;;;;;5077810;28;20032;-83
2022/11/01 03:47:45;;;;;;;5.25;3.00;;;;;;;;;;5060617;28;20044;-84
2022/11/01 03:50:14;;;;;;;8.52;2.92;;;;;;;;;;5078153;28;20463;-84
2022/11/01 03:52:40;;;;;;;5.47;2.90;;;;;;;;;;5095783;28;20027;-85
2022/11/01 03:55:16;;;;;;;8.00;2.97;;;;;;;;;;5060897;28;20028;-84
2022/11/01 03:57:46;;;;;;;7.05;2.90;;;;;;;;;;5077700;28;20051;-83
2022/11/01 04:00:14;;;;;;;10.63;3.25;;;;;;;;;;5077864;28;20024;-82
2022/11/01 04:02:40;;;;;;;6.57;2.92;;;;;;;;;;5077722;28;20020;-83
2022/11/01 04:05:06;;;;;;;5.32;2.65;;;;;;;;;;5095977;28;20056;-83
2022/11/01 04:07:31;;;;;;;6.47;2.80;;;;;;;;;;5095763;28;20105;-83
2022/11/01 04:09:57;;;;;;;8.10;3.38;;;;;;;;;;5095301;28;20494;-83
2022/11/01 04:12:22;;;;;;;7.43;3.13;;;;;;;;;;5060813;28;20047;-83
2022/11/01 04:20:33;;;;;;;6.30;2.72;;;;;;;;;;5079760;28;20036;-83
2022/11/01 04:23:04;;;;;;;4.60;2.50;;;;;;;;;;5079740;28;20032;-83
2022/11/01 04:25:30;;;;;;;7.82;2.75;;;;;;;;;;5076777;28;20024;-83
2022/11/01 04:27:56;;;;;;;7.97;2.90;;;;;;;;;;5095280;28;20031;-82
2022/11/01 04:30:26;;;;;;;5.25;2.30;;;;;;;;;;5076830;28;20046;-82
2022/11/01 04:32:52;;;;;;;8.18;2.60;;;;;;;;;;5077176;28;20031;-82
2022/11/01 04:35:17;;;;;;;7.18;2.63;;;;;;;;;;5077384;28;20023;-82
2022/11/01 04:37:43;;;;;;;4.85;2.50;;;;;;;;;;5076810;28;20368;-82
2022/11/01 04:40:09;;;;;;;9.43;2.15;;;;;;;;;;5076939;28;20055;-83
2022/11/01 04:42:35;;;;;;;4.78;2.17;;;;;;;;;;5060154;28;20085;-81
2022/11/01 04:45:01;;;;;;;5.25;2.13;;;;;;;;;;5076504;28;20034;-83
2022/11/01 04:47:26;;;;;;;6.82;2.28;;;;;;;;;;5059123;28;20491;-82
2022/11/01 04:49:52;;;;;;;4.72;2.10;;;;;;;;;;5076511;28;20081;-83
2022/11/01 04:52:17;;;;;;;6.90;1.75;;;;;;;;;;5094934;28;20028;-82
2022/11/01 04:54:43;;;;;;;9.75;2.60;;;;;;;;;;5076566;28;20039;-83
2022/11/01 04:57:21;;;;;;;6.22;1.58;;;;;;;;;;5094686;28;20032;-84
2022/11/01 04:59:50;;;;;;;4.32;1.40;;;;;;;;;;5078276;28;20028;-83
2022/11/01 05:02:16;;;;;;;2.10;1.40;;;;;;;;;;5059574;28;20036;-84
2022/11/01 05:04:42;;;;;;;4.50;1.52;;;;;;;;;;5076390;28;20020;-83
2022/11/01 05:07:07;;;;;;;2.75;1.65;;;;;;;;;;5077025;28;20115;-83
2022/11/01 05:09:32;;;;;;;3.67;1.50;;;;;;;;;;5076435;28;20053;-82
2022/11/01 05:11:58;;;;;;;4.90;1.70;;;;;;;;;;5094739;28;20032;-80
2022/11/01 05:14:23;;;;;;;9.10;1.60;;;;;;;;;;5076385;28;20032;-82
2022/11/01 05:16:48;;;;;;;4.72;2.10;;;;;;;;;;5076574;28;20351;-82
2022/11/01 05:19:15;;;;;;;3.65;1.83;;;;;;;;;;5094352;28;20105;-82
2022/11/01 05:21:40;;;;;;;8.93;2.22;;;;;;;;;;5076312;28;20024;-82
2022/11/01 05:24:06;;;;;;;14.98;2.03;;;;;;;;;;5076822;28;20354;-82
2022/11/01 05:26:31;;;;;;;4.80;1.70;;;;;;;;;;5076010;28;20028;-82
2022/11/01 05:28:57;;;;;;;8.32;1.83;;;;;;;;;;5094242;28;20032;-83
2022/11/01 05:31:22;;;;;;;9.52;1.77;;;;;;;;;;5094328;28;20071;-83
2022/11/01 05:33:47;;;;;;;11.25;2.38;;;;;;;;;;5094095;28;20096;-83
2022/11/01 05:36:13;;;;;;;4.97;1.85;;;;;;;;;;5094025;28;20028;-82
2022/11/01 05:38:38;;;;;;;4.63;2.17;;;;;;;;;;5076155;28;20036;-83
2022/11/01 05:41:03;;;;;;;6.30;1.80;;;;;;;;;;5059140;28;20493;-83
2022/11/01 05:43:29;;;;;;;4.47;1.88;;;;;;;;;;5059317;28;20047;-84
2022/11/01 05:45:54;;;;;;;9.13;2.30;;;;;;;;;;5094179;28;20081;-82
2022/11/01 05:48:20;;;;;;;6.00;2.00;;;;;;;;;;5058803;28;20067;-83
2022/11/01 05:50:45;;;;;;;3.50;1.50;;;;;;;;;;5094061;28;20039;-81
2022/11/01 05:53:11;;;;;;;6.25;1.65;;;;;;;;;;5094105;28;20024;-82
2022/11/01 05:55:37;;;;;;;6.70;1.75;;;;;;;;;;5094302;28;20031;-82
2022/11/01 05:58:04;;;;;;;14.77;1.90;;;;;;;;;;5093758;28;20391;-81
2022/11/01 06:00:30;;;;;;;17.60;2.35;;;;;;;;;;5074718;28;20043;-80
2022/11/01 06:02:59;;;;;;;8.95;2.58;;;;;;;;;;5058804;28;20024;-81
2022/11/01 06:05:26;;;;;;;9.02;2.33;;;;;;;;;;5093582;28;20035;-81
2022/11/01 06:07:51;;;;;;;11.10;2.22;;;;;;;;;;5075909;28;20043;-80
2022/11/01 06:10:17;;;;;;;12.73;2.00;;;;;;;;;;5058743;28;20070;-80
2022/11/01 06:12:42;;;;;;;10.65;2.50;;;;;;;;;;5075836;28;20052;-80
2022/11/01 06:15:08;;;;;;;13.23;1.90;;;;;;;;;;5075790;28;20047;-82
2022/11/01 06:17:33;;;;;;;6.35;1.83;;;;;;;;;;5093353;28;20040;-82
2022/11/01 06:19:58;;;;;;;7.80;1.95;;;;;;;;;;5058640;28;20076;-81
2022/11/01 06:22:24;;;;;;;12.00;2.20;;;;;;;;;;5075184;28;20050;-81
2022/11/01 06:24:49;;;;;;;9.32;1.80;;;;;;;;;;5058467;28;20039;-82
2022/11/01 06:27:15;;;;;;;7.90;1.98;;;;;;;;;;5075366;28;20115;-82
2022/11/01 06:29:40;;;;;;;7.35;1.85;;;;;;;;;;5075308;28;20020;-82
2022/11/01 06:32:06;;;;;;;6.65;1.83;;;;;;;;;;5075518;28;20066;-82
2022/11/01 06:34:31;;;;;;;5.00;1.50;;;;;;;;;;5075460;28;20103;-82
2022/11/01 06:36:57;;;;;;;4.38;1.50;;;;;;;;;;5058443;28;20035;-82
2022/11/01 06:39:22;;;;;;;7.05;1.50;;;;;;;;;;5058938;28;20107;-82
2022/11/01 06:41:49;;;;;;;4.10;1.23;;;;;;;;;;5075124;28;20028;-82
2022/11/01 06:44:14;;;;;;;2.17;1.10;;;;;;;;;;5058891;28;20096;-82
2022/11/01 06:46:40;;;;;;;2.92;1.20;;;;;;;;;;5093342;28;20467;-81
2022/11/01 06:49:05;;;;;;;3.42;1.25;;;;;;;;;;5058311;28;20052;-81
2022/11/01 06:51:31;;;;;;;2.50;1.20;;;;;;;;;;5075648;28;20518;-82
2022/11/01 06:53:56;;;;;;;5.18;1.38;;;;;;;;;;5058481;28;20032;-82
2022/11/01 06:56:22;;;;;;;6.95;1.30;;;;;;;;;;5093362;28;20081;-81
2022/11/01 06:58:48;;;;;;;4.30;1.35;;;;;;;;;;5074995;28;20031;-82
2022/11/01 07:01:14;;;;;;;7.05;1.42;;;;;;;;;;5075088;28;20025;-82
2022/11/01 07:03:39;;;;;;;2.55;1.00;;;;;;;;;;5075135;28;20035;-82
2022/11/01 07:06:04;;;;;;;3.10;1.48;;;;;;;;;;5093302;28;20459;-82
2022/11/01 07:08:30;;;;;;;3.75;1.40;;;;;;;;;;5093312;28;20020;-82
2022/11/01 07:10:55;;;;;;;6.10;1.42;;;;;;;;;;5076170;28;20069;-81
2022/11/01 07:13:21;;;;;;;7.85;1.70;;;;;;;;;;5097192;28;20373;-80
2022/11/01 07:15:46;;;;;;;6.35;1.40;;;;;;;;;;5079179;28;20028;-80
2022/11/01 07:18:12;;;;;;;4.32;1.60;;;;;;;;;;5096987;28;20073;-79
2022/11/01 07:20:41;;;;;;;8.48;1.50;;;;;;;;;;5061953;28;20122;-79
2022/11/01 07:23:11;;;;;;;9.52;1.70;;;;;;;;;;5078433;28;20028;-80
2022/11/01 07:25:36;;;;;;;4.13;1.23;;;;;;;;;;5078277;28;20034;-80
2022/11/01 07:28:02;;;;;;;6.18;1.55;;;;;;;;;;5096560;28;20024;-79
2022/11/01 07:30:27;;;;;;;6.75;1.90;;;;;;;;;;5061977;28;20028;-79
2022/11/01 07:32:57;;;;;;;8.00;1.58;;;;;;;;;;5096396;28;20443;-79
2022/11/01 07:35:23;;;;;;;5.60;1.55;;;;;;;;;;5078641;28;20473;-80
2022/11/01 07:37:48;;;;;;;4.07;1.27;;;;;;;;;;5096617;28;20111;-79
2022/11/01 07:40:14;;;;;;;5.40;1.90;;;;;;;;;;5078188;28;20028;-80
2022/11/01 07:42:41;;;;;;;5.68;2.03;;;;;;;;;;5096469;28;20115;-80
2022/11/01 07:45:08;;;;;;;10.77;1.95;;;;;;;;;;5078449;28;20024;-79
2022/11/01 07:47:33;;;;;;;7.75;1.70;;;;;;;;;;5078093;28;20031;-79
2022/11/01 07:49:59;;;;;;;5.85;1.35;;;;;;;;;;5095997;28;20062;-80
2022/11/01 07:52:24;;;;;;;8.05;1.52;;;;;;;;;;5096008;28;20055;-80
2022/11/01 07:54:50;;;;;;;5.75;1.50;;;;;;;;;;5096044;28;20478;-79
2022/11/01 07:57:15;;;;;;;5.45;1.58;;;;;;;;;;5094762;28;20210;-78
2022/11/01 07:59:40;;;;;;;8.63;1.67;;;;;;;;;;5095881;28;20059;-79
2022/11/01 08:02:07;;;;;;;9.85;1.70;;;;;;;;;;5096050;28;20039;-78
2022/11/01 08:04:33;;;;;;;15.23;1.85;;;;;;;;;;5077816;28;20027;-80
2022/11/01 08:06:58;;;;;;;8.50;1.95;;;;;;;;;;5077934;28;20038;-79
2022/11/01 08:09:23;;;;;;;8.52;1.92;;;;;;;;;;5077962;28;20425;-78
2022/11/01 08:11:49;;;;;;;13.07;2.28;;;;;;;;;;5078152;28;20063;-78
2022/11/01 08:14:14;;;;;;;9.23;2.17;;;;;;;;;;5060811;28;20039;-78
2022/11/01 08:16:41;;;;;;;11.10;2.00;;;;;;;;;;5077928;28;20024;-78
2022/11/01 08:19:06;;;;;;;8.18;1.90;;;;;;;;;;5077350;28;20035;-77
2022/11/01 08:21:31;;;;;;;11.00;2.25;;;;;;;;;;5095597;28;20100;-79
2022/11/01 08:23:57;;;;;;;11.88;2.05;;;;;;;;;;5094911;28;20028;-77
2022/11/01 08:26:22;;;;;;;15.70;2.25;;;;;;;;;;5077449;28;20024;-78
2022/11/01 08:28:47;;;;;;;7.65;2.13;;;;;;;;;;5095616;28;20039;-77
2022/11/01 08:31:13;;;;;;;10.23;1.90;;;;;;;;;;5095573;28;20421;-78
2022/11/01 08:33:38;;;;;;;7.60;2.40;;;;;;;;;;5060636;28;20031;-78
2022/11/01 08:36:04;;;;;;;7.85;1.90;;;;;;;;;;5077122;28;20059;-79
2022/11/01 08:38:29;;;;;;;9.35;2.05;;;;;;;;;;5060451;28;20040;-78
2022/11/01 08:40:55;;;;;;;7.38;1.63;;;;;;;;;;5095116;28;20081;-78
2022/11/01 08:43:20;;;;;;;7.35;1.70;;;;;;;;;;5095543;28;20032;-78
2022/11/01 08:45:46;;;;;;;11.82;2.05;;;;;;;;;;5094993;28;20032;-78
2022/11/01 08:48:11;;;;;;;8.57;1.90;;;;;;;;;;5060466;28;20564;-77
2022/11/01 08:50:37;;;;;;;11.48;1.95;;;;;;;;;;5043521;28;20040;-78
2022/11/01 08:53:08;;;;;;;8.95;1.90;;;;;;;;;;5076669;28;20390;-77
2022/11/01 08:55:35;;;;;;;6.75;1.92;;;;;;;;;;5095391;28;20092;-78
2022/11/01 08:58:00;;;;;;;11.50;2.20;;;;;;;;;;5077080;28;20430;-78
2022/11/01 09:00:26;;;;;;;8.27;1.80;;;;;;;;;;5077244;28;20112;-78
2022/11/01 09:02:51;;;;;;;10.40;2.00;;;;;;;;;;5060828;28;20124;-78
2022/11/01 09:05:17;;;;;;;15.02;1.92;;;;;;;;;;5061685;28;20040;-78
2022/11/01 09:07:42;;;;;;;6.75;1.95;;;;;;;;;;5077356;28;20406;-78
2022/11/01 09:10:09;;;;;;;10.10;2.20;;;;;;;;;;5060026;28;20082;-78
2022/11/01 09:12:35;;;;;;;7.63;1.80;;;;;;;;;;5077639;28;20058;-78
2022/11/01 09:15:00;;;;;;;6.32;2.05;;;;;;;;;;5076942;28;20028;-78
2022/11/01 09:17:26;;;;;;;11.95;1.92;;;;;;;;;;5077141;28;20032;-78
2022/11/01 09:19:51;;;;;;;10.32;1.85;;;;;;;;;;5077265;28;20562;-78
2022/11/01 09:22:17;;;;;;;8.15;1.83;;;;;;;;;;5095402;28;20035;-78
2022/11/01 09:24:42;;;;;;;10.02;2.33;;;;;;;;;;5076545;28;20467;-79
2022/11/01 09:27:08;;;;;;;10.10;1.88;;;;;;;;;;5094918;28;20455;-79
2022/11/01 09:29:34;;;;;;;8.70;2.53;;;;;;;;;;5094519;28;20024;-78
2022/11/01 09:31:59;;;;;;;6.53;1.98;;;;;;;;;;5059554;28;20031;-78
2022/11/01 09:34:24;;;;;;;6.47;2.13;;;;;;;;;;5093977;28;20139;-78
2022/11/01 09:36:50;;;;;;;8.15;2.00;;;;;;;;;;5094138;28;20024;-79
2022/11/01 09:39:16;;;;;;;6.25;2.33;;;;;;;;;;5075983;28;20035;-78
2022/11/01 09:41:46;;;;;;;9.32;1.98;;;;;;;;;;5076167;28;20043;-79
2022/11/01 09:44:24;;;;;;;6.90;2.22;;;;;;;;;;5076385;28;20035;-79
2022/11/01 09:46:59;;;;;;;10.55;2.38;;;;;;;;;;5076023;28;20062;-79
2022/11/01 09:49:28;;;;;;;8.13;2.28;;;;;;;;;;5092262;28;20128;-78
2022/11/01 09:51:54;;;;;;;9.48;2.33;;;;;;;;;;5075802;28;20055;-79
2022/11/01 09:54:21;;;;;;;9.23;2.00;;;;;;;;;;5075554;28;20446;-79
2022/11/01 09:57:25;;;;;;;9.57;1.95;;;;;;;;;;5075772;28;20020;-79
2022/11/01 10:00:17;;;;;;;7.68;2.25;;;;;;;;;;5075703;28;20423;-78
2022/11/01 10:03:01;;;;;;;9.10;2.22;;;;;;;;;;5059054;28;20073;-79
2022/11/01 10:05:35;;;;;;;;;;;;;;;;;;5094383;28;20093;-79
2022/11/01 10:08:28;;;;;;;9.85;2.40;;;;;;;;;;5059090;28;19908;-80
2022/11/01 10:11:28;;;;;;;4.90;1.70;;;;;;;;;;5076331;28;20390;-79
2022/11/01 10:14:26;;;;;;;10.05;2.30;;;;;;;;;;5076401;28;20036;-79
2022/11/01 10:17:14;;;;;;;8.05;1.85;;;;;;;;;;5076552;28;20019;-79
2022/11/01 10:19:43;;;;;;;13.07;1.98;;;;;;;;;;5076962;28;20030;-80
2022/11/01 10:22:14;;;;;;;9.43;2.20;;;;;;;;;;5075970;28;20517;-79
2022/11/01 10:24:53;;;;;;;11.43;2.60;;;;;;;;;;5075580;28;20024;-78
2022/11/01 10:27:38;;;;;;;15.20;2.50;;;;;;;;;;5093675;28;20466;-78
2022/11/01 10:30:15;;;;;;;11.52;2.00;;;;;;;;;;5075529;28;20073;-78
2022/11/01 10:32:47;;;;;;;9.20;1.73;;;;;;;;;;5058482;28;20433;-78
2022/11/01 10:35:23;;;;;;;12.75;2.60;;;;;;;;;;5093619;28;20016;-77
2022/11/01 10:37:52;;;;;;;11.63;2.47;;;;;;;;;;5075334;28;20058;-78
2022/11/01 10:40:23;;;;;;;9.52;1.95;;;;;;;;;;5075158;28;20028;-78
2022/11/01 10:42:49;;;;;;;6.22;1.70;;;;;;;;;;5075380;28;20077;-79
2022/11/01 10:45:16;;;;;;;9.25;2.00;;;;;;;;;;5093440;28;20444;-78
2022/11/01 10:47:42;;;;;;;12.60;2.90;;;;;;;;;;5079361;28;20055;-78
2022/11/01 10:50:11;;;;;;;11.65;2.70;;;;;;;;;;5062197;28;20020;-78
2022/11/01 10:53:02;;;;;;;8.63;2.08;;;;;;;;;;5097205;28;20444;-77
2022/11/01 10:55:30;;;;;;;5.50;1.77;;;;;;;;;;5079104;28;20032;-77
2022/11/01 10:58:06;;;;;;;13.27;2.20;;;;;;;;;;5078923;28;20058;-78
2022/11/01 11:00:33;;;;;;;9.60;2.20;;;;;;;;;;5078961;28;20055;-77
2022/11/01 11:03:06;;;;;;;7.97;2.00;;;;;;;;;;5079017;28;20046;-78
2022/11/01 11:05:32;;;;;;;8.50;1.90;;;;;;;;;;5078874;28;20103;-77
2022/11/01 11:08:02;;;;;;;8.07;2.10;;;;;;;;;;5078733;28;20521;-78
2022/11/01 11:10:28;;;;;;;6.93;2.30;;;;;;;;;;5079810;28;20082;-79
2022/11/01 11:13:00;;;;;;;7.65;1.90;;;;;;;;;;5062146;28;20028;-78
2022/11/01 11:15:45;;;;;;;7.25;2.00;;;;;;;;;;5079038;28;20024;-77
2022/11/01 11:18:30;;;;;;;10.10;2.22;;;;;;;;;;5062244;28;20020;-79
2022/11/01 11:20:59;;;;;;;12.13;2.15;;;;;;;;;;5078528;28;20024;-79
2022/11/01 11:23:26;;;;;;;7.13;2.13;;;;;;;;;;5078709;28;20020;-80
2022/11/01 11:25:51;;;;;;;10.10;1.80;;;;;;;;;;5078871;28;20430;-80
2022/11/01 11:28:27;;;;;;;9.68;1.92;;;;;;;;;;5096463;28;20103;-79
2022/11/01 11:30:53;;;;;;;10.25;2.40;;;;;;;;;;5078510;28;20027;-77
2022/11/01 11:33:18;;;;;;;9.43;2.00;;;;;;;;;;5078396;28;20360;-78
2022/11/01 11:35:55;;;;;;;11.43;2.72;;;;;;;;;;5078346;28;20028;-78
2022/11/01 11:38:39;;;;;;;7.45;1.98;;;;;;;;;;5078496;28;20020;-78
2022/11/01 11:41:05;;;;;;;7.88;1.83;;;;;;;;;;5078496;28;20024;-78
2022/11/01 11:43:32;;;;;;;6.55;1.95;;;;;;;;;;5078113;28;20046;-78
2022/11/01 11:46:04;;;;;;;5.88;2.00;;;;;;;;;;5078015;28;20036;-78
2022/11/01 11:48:29;;;;;;;12.10;2.50;;;;;;;;;;5096015;28;20063;-78
2022/11/01 11:51:01;;;;;;;10.20;2.72;;;;;;;;;;5061025;28;20036;-78
2022/11/01 11:53:28;;;;;;;5.55;1.83;;;;;;;;;;5061158;28;20034;-78
2022/11/01 11:55:55;;;;;;;9.30;2.20;;;;;;;;;;5078185;28;20031;-78
2022/11/01 11:58:40;;;;;;;8.18;2.50;;;;;;;;;;5076524;28;20069;-78
2022/11/01 12:01:11;;;;;;;10.68;2.33;;;;;;;;;;5078344;28;20162;-78
2022/11/01 12:03:47;;;;;;;13.18;2.58;;;;;;;;;;5077582;28;20073;-78
2022/11/01 12:06:18;;;;;;;8.80;2.60;;;;;;;;;;5077920;28;20027;-78
2022/11/01 12:08:47;;;;;;;18.17;2.80;;;;;;;;;;5061036;28;20024;-77
2022/11/01 12:11:12;;;;;;;8.90;2.80;;;;;;;;;;5077884;28;20081;-78
2022/11/01 12:13:40;;;;;;;10.52;2.33;;;;;;;;;;5094501;28;20081;-78
2022/11/01 12:16:13;;;;;;;9.88;2.70;;;;;;;;;;5077872;28;20031;-78
2022/11/01 12:18:45;;;;;;;12.32;3.15;;;;;;;;;;5095829;28;20459;-77
2022/11/01 12:21:16;;;;;;;8.77;2.40;;;;;;;;;;5077319;28;20462;-79
2022/11/01 12:23:42;;;;;;;14.48;3.20;;;;;;;;;;5077743;28;20020;-79
2022/11/01 12:26:10;;;;;;;10.90;2.90;;;;;;;;;;5095386;28;20028;-78
2022/11/01 12:28:46;;;;;;;10.10;2.67;;;;;;;;;;5060600;28;20216;-78
2022/11/01 12:31:17;;;;;;;10.80;2.70;;;;;;;;;;5077138;28;20024;-79
2022/11/01 12:34:05;;;;;;;12.00;2.30;;;;;;;;;;5060535;28;20431;-78
2022/11/01 12:37:13;;;;;;;13.73;2.25;;;;;;;;;;5076971;28;20454;-78
2022/11/01 12:40:20;;;;;;;13.95;2.78;;;;;;;;;;5094920;28;20482;-78
2022/11/01 12:42:50;;;;;;;11.82;2.50;;;;;;;;;;5069380;28;20040;-78
2022/11/01 12:45:30;;;;;;;9.60;2.55;;;;;;;;;;5060191;28;20522;-79
2022/11/01 12:48:05;;;;;;;8.63;2.15;;;;;;;;;;5076771;28;20028;-79
2022/11/01 12:50:51;;;;;;;8.38;2.03;;;;;;;;;;5095255;28;20098;-80
2022/11/01 12:53:20;;;;;;;7.72;2.00;;;;;;;;;;5077009;28;20371;-79
2022/11/01 12:55:46;;;;;;;6.80;2.15;;;;;;;;;;5076795;28;20383;-79
2022/11/01 12:58:14;;;;;;;7.00;2.00;;;;;;;;;;5076901;28;20032;-79
2022/11/01 13:00:43;;;;;;;8.57;2.28;;;;;;;;;;5076730;28;20098;-79
2022/11/01 13:03:21;;;;;;;8.68;1.75;;;;;;;;;;5076685;28;20028;-77
2022/11/01 13:06:15;;;;;;;12.32;2.35;;;;;;;;;;5076758;28;20053;-78
2022/11/01 13:09:04;;;;;;;;;;;;;;;;;;5076657;28;20081;-78
2022/11/01 13:11:58;;;;;;;8.13;1.95;;;;;;;;;;5063377;28;19919;-78
2022/11/01 13:14:27;;;;;;;;;;;;;;;;;;5095166;28;20037;-80
2022/11/01 13:17:22;;;;;;;5.60;2.05;;;;;;;;;;5094570;28;19958;-78
2022/11/01 13:19:58;;;;;;;6.70;1.77;;;;;;;;;;5065598;28;20039;-78
2022/11/01 13:22:43;;;;;;;7.60;2.28;;;;;;;;;;5059669;28;20028;-78
2022/11/01 13:25:18;;;;;;;8.27;1.92;;;;;;;;;;5059400;28;20047;-78
2022/11/01 13:27:50;;;;;;;5.97;1.90;;;;;;;;;;5059367;28;20027;-77
2022/11/01 13:30:19;;;;;;;6.40;1.90;;;;;;;;;;5076610;28;20020;-78
2022/11/01 13:32:58;;;;;;;5.93;1.70;;;;;;;;;;5059639;28;20027;-78
2022/11/01 13:35:30;;;;;;;6.85;1.92;;;;;;;;;;5059120;28;20030;-78
2022/11/01 13:38:25;;;;;;;8.70;1.85;;;;;;;;;;5094139;28;20020;-78
2022/11/01 13:41:18;;;;;;;;;;;;;;;;;;5062828;28;20054;-78
2022/11/01 13:43:47;;;;;;;7.18;1.80;;;;;;;;;;5060395;28;19949;-78
2022/11/01 13:46:47;;;;;;;7.10;1.70;;;;;;;;;;5058852;28;20024;-78
2022/11/01 13:49:31;;;;;;;4.30;1.67;;;;;;;;;;5075624;28;20109;-79
2022/11/01 13:52:04;;;;;;;6.18;1.85;;;;;;;;;;5075592;28;20044;-78
2022/11/01 13:54:44;;;;;;;9.93;1.63;;;;;;;;;;5075967;28;20040;-78
2022/11/01 13:57:12;;;;;;;3.95;1.20;;;;;;;;;;5075487;28;20019;-78
2022/11/01 13:59:44;;;;;;;8.15;1.40;;;;;;;;;;5059466;28;20423;-78
2022/11/01 14:02:22;;;;;;;6.75;1.60;;;;;;;;;;5094158;28;20036;-78
2022/11/01 14:05:08;;;;;;;5.88;1.80;;;;;;;;;;5093923;28;20028;-78
2022/11/01 14:07:42;;;;;;;6.25;1.55;;;;;;;;;;5075730;28;20036;-78
2022/11/01 14:10:17;;;;;;;9.52;1.60;;;;;;;;;;5093550;28;20470;-78
2022/11/01 14:12:45;;;;;;;6.88;1.70;;;;;;;;;;5093749;28;20027;-78
2022/11/01 14:15:10;;;;;;;9.18;1.95;;;;;;;;;;5075468;28;20028;-79
2022/11/01 14:17:51;;;;;;;6.57;1.42;;;;;;;;;;5093735;28;20051;-79
2022/11/01 14:20:30;;;;;;;8.73;1.88;;;;;;;;;;5074369;28;20040;-79
2022/11/01 14:22:56;;;;;;;5.95;1.98;;;;;;;;;;5093431;28;20162;-79
2022/11/01 14:25:21;;;;;;;16.45;1.90;;;;;;;;;;5075473;28;20103;-79
2022/11/01 14:28:08;;;;;;;6.13;1.90;;;;;;;;;;5093625;28;20020;-79
2022/11/01 14:30:37;;;;;;;7.30;1.50;;;;;;;;;;5082520;28;20036;-79
2022/11/01 14:33:03;;;;;;;7.55;1.92;;;;;;;;;;5093407;28;20031;-79
2022/11/01 14:35:33;;;;;;;6.10;1.67;;;;;;;;;;5042017;28;20028;-79
2022/11/01 14:38:02;;;;;;;16.48;1.83;;;;;;;;;;5075282;28;20463;-81
2022/11/01 14:40:28;;;;;;;8.45;1.80;;;;;;;;;;5075706;28;20385;-79
2022/11/01 14:42:57;;;;;;;5.47;1.55;;;;;;;;;;5075331;28;20024;-80
2022/11/01 14:45:34;;;;;;;6.80;1.40;;;;;;;;;;5075279;28;20032;-79
2022/11/01 14:48:06;;;;;;;10.57;2.47;;;;;;;;;;5075032;28;20044;-79
2022/11/01 14:50:45;;;;;;;7.57;1.70;;;;;;;;;;5058700;28;20073;-80
2022/11/01 14:53:22;;;;;;;6.53;1.58;;;;;;;;;;5058604;28;20035;-79
2022/11/01 14:55:48;;;;;;;4.75;1.50;;;;;;;;;;5075376;28;20034;-79
2022/11/01 14:58:22;;;;;;;5.30;1.50;;;;;;;;;;5075972;28;20521;-79
2022/11/01 15:00:50;;;;;;;5.93;1.45;;;;;;;;;;5076162;28;20062;-79
2022/11/01 15:03:15;;;;;;;4.35;1.45;;;;;;;;;;5058675;28;20058;-79
2022/11/01 15:05:43;;;;;;;5.47;1.55;;;;;;;;;;5076485;28;20051;-79
2022/11/01 15:08:23;;;;;;;5.45;1.60;;;;;;;;;;5076455;28;20043;-79